Flight Number: EUR1175 Duration: 2:20
Departure: Madrid / Barajas (LEMD) at 08:30 Distance: 955 Nm
Arrival: Tenerife Norte (GCXO) at 10:50 Equipment: A321

Weather Information
Madrid / Barajas, Spain (LEMD) 40-27N 003-33W 582M Sep 21, 2017 - 05:00 PM EDT / 2017.09.21 2100 UTC
Wind: from the NNW (340 degrees) at 7 MPH (6 KT):0
Visibility: greater than 7 mile(s):0 Temperature: 73 F (23 C) Dew Point: 41 F (5 C) Relative Humidity: 31% Pressure (altimeter): 30.00 in. Hg (1016 hPa)
ob: LEMD 212100Z 34006KT CAVOK 23/05 Q1016 NOSIG cycle: 21
Sunrise: 06:04 Sunset: 18:09 (UTC)

Tenerife / Los Rodeos, Spain (GCXO) 28-28N 016-19W 617M Sep 21, 2017 - 05:00 PM EDT / 2017.09.21 2100 UTC
Wind: from the NW (310 degrees) at 24 MPH (21 KT):0
Visibility: greater than 7 mile(s):0
Sky conditions: mostly cloudy Temperature: 64 F (18 C) Dew Point: 62 F (17 C) Relative Humidity: 93% Pressure (altimeter): 30.15 in. Hg (1021 hPa)
ob: GCXO 212100Z 31021KT 9999 SCT002 BKN010 18/17 Q1021 NOSIG cycle: 21
Sunrise: 06:56 Sunset: 19:00 (UTC)

TAF:2017/09/21 21:27 TAF GCXO 212000Z 2121/2221 32018KT 9999 BKN010 TX22/2214Z TN16/2206Z TEMPO 2121/2123 32020G32KT TEMPO 2121/2209 2500 DZ BCFG BKN003 PROB30 TEMPO 2121/2209 1200 RA BCFG BKN001

Previous Pireps for this route
Date Aircraft Flight time Fuel used Landing rate On time
2012-10-28A32102.5416304-310No
2013-06-05A32102.5116238-344No
2013-10-29B7372.20200000No
2014-06-11A32102.2814963-193Yes
2014-07-15A3212.4194480No
2014-07-19A32102.3615014-185Yes
2014-10-12A3212.20170000No
2015-01-06A3212.53221550No
(pireps marked green are flown by you)

Route map